Time;durP1;ratioP1;P1;durP2;ratioP2;P2;SDS_P1;SDS_P2;PMS_P1;PMS_P2;Temp;Humidity;BMP_temperature;BMP_pressure;BME280_temperature;BME280_humidity;BME280_pressure;Samples;Min_cycle;Max_cycle;Signal;HPM_P1;HPM_P2
2022/12/28 00:01:22;;;;;;;;;;;;;;;11.04;52.83;100757.84;4953438;28;6841;-71
2022/12/28 00:03:49;;;;;;;;;;;;;;;11.07;53.22;100757.13;4946046;28;7304;-71
2022/12/28 00:06:16;;;;;;;;;;;;;;;11.10;53.24;100754.72;4947754;28;6816;-71
2022/12/28 00:08:42;;;;;;;;;;;;;;;11.15;53.13;100750.72;4978276;28;6804;-72
2022/12/28 00:11:16;;;;;;;;;;;;;;;11.20;53.28;100743.25;4946682;28;6815;-71
2022/12/28 00:13:42;;;;;;;;;;;;;;;11.26;52.93;100725.63;4944373;28;6800;-71
2022/12/28 00:16:17;;;;;;;;;;;;;;;11.30;53.01;100729.19;4945331;28;6768;-71
2022/12/28 00:18:43;;;;;;;;;;;;;;;11.34;53.03;100721.72;4945595;28;7122;-71
2022/12/28 00:21:08;;;;;;;;;;;;;;;11.34;53.07;100721.72;4944409;28;6934;-71
2022/12/28 00:23:34;;;;;;;;;;;;;;;11.39;53.00;100720.28;4943604;28;6784;-71
2022/12/28 00:26:09;;;;;;;;;;;;;;;11.39;53.19;100715.16;4976526;28;6784;-71
2022/12/28 00:28:35;;;;;;;;;;;;;;;11.39;52.93;100704.00;4959631;28;7646;-71
2022/12/28 00:31:01;;;;;;;;;;;;;;;11.42;52.95;100717.00;4963871;28;7210;-71
2022/12/28 00:33:27;;;;;;;;;;;;;;;11.43;53.15;100715.28;4961911;28;7375;-71
2022/12/28 00:35:54;;;;;;;;;;;;;;;11.40;53.51;100716.06;4958351;28;6784;-71
2022/12/28 00:38:20;;;;;;;;;;;;;;;11.35;53.41;100712.34;4966199;28;6868;-71
2022/12/28 00:40:46;;;;;;;;;;;;;;;11.31;53.49;100706.19;4963902;28;6855;-71
2022/12/28 00:43:11;;;;;;;;;;;;;;;11.24;53.76;100704.13;4978074;28;6969;-71
2022/12/28 00:45:37;;;;;;;;;;;;;;;11.17;53.84;100697.81;4954827;28;7124;-71
2022/12/28 00:48:03;;;;;;;;;;;;;;;11.11;54.47;100684.69;4962082;28;6776;-71
2022/12/28 00:50:30;;;;;;;;;;;;;;;11.05;54.27;100672.41;4975829;28;7246;-71
2022/12/28 00:52:56;;;;;;;;;;;;;;;10.98;54.93;100670.34;4956116;28;6800;-71
2022/12/28 00:55:22;;;;;;;;;;;;;;;10.92;55.20;100665.78;4975877;28;7424;-71
2022/12/28 00:57:47;;;;;;;;;;;;;;;10.92;55.16;100662.34;4947481;28;7743;-71
2022/12/28 01:00:14;;;;;;;;;;;;;;;10.91;55.08;100645.19;4967298;28;6772;-71
2022/12/28 01:02:40;;;;;;;;;;;;;;;10.91;55.17;100640.06;4975797;28;6984;-71
2022/12/28 01:05:06;;;;;;;;;;;;;;;10.93;55.51;100634.22;4960625;28;6781;-71
2022/12/28 01:07:32;;;;;;;;;;;;;;;10.97;55.42;100619.88;4956295;28;6800;-71
2022/12/28 01:09:57;;;;;;;;;;;;;;;11.03;55.45;100620.16;4959321;28;6776;-71
2022/12/28 01:12:23;;;;;;;;;;;;;;;11.06;55.32;100620.31;4963226;28;6772;-71
2022/12/28 01:14:49;;;;;;;;;;;;;;;11.14;55.28;100620.69;4956491;28;6776;-72
2022/12/28 01:17:14;;;;;;;;;;;;;;;11.19;55.59;100621.78;4966641;28;6776;-71
2022/12/28 01:19:40;;;;;;;;;;;;;;;11.25;55.24;100614.41;4958797;28;6780;-71
2022/12/28 01:22:05;;;;;;;;;;;;;;;11.32;55.17;100613.00;4956916;28;6768;-71
2022/12/28 01:24:31;;;;;;;;;;;;;;;11.35;54.90;100604.56;4959424;28;6918;-71
2022/12/28 01:26:57;;;;;;;;;;;;;;;11.38;54.97;100597.00;4958973;28;6772;-72
2022/12/28 01:29:22;;;;;;;;;;;;;;;11.44;55.18;100589.63;4958365;28;6991;-71
2022/12/28 01:31:48;;;;;;;;;;;;;;;11.48;55.04;100577.81;4955706;28;7055;-71
2022/12/28 01:34:13;;;;;;;;;;;;;;;11.47;54.87;100582.06;4976049;28;6779;-71
2022/12/28 01:36:39;;;;;;;;;;;;;;;11.54;54.61;100588.38;4960463;28;6848;-71
2022/12/28 01:39:05;;;;;;;;;;;;;;;11.56;54.56;100586.75;4957934;28;6812;-71
2022/12/28 01:41:37;;;;;;;;;;;;;;;11.62;54.45;100581.88;4977240;28;6808;-71
2022/12/28 01:44:02;;;;;;;;;;;;;;;11.66;54.58;100570.06;4989288;28;7877;-71
2022/12/28 01:46:59;;;;;;;;;;;;;;;11.71;54.43;100573.75;4956403;28;6780;-71
2022/12/28 01:49:50;;;;;;;;;;;;;;;11.77;54.49;100574.00;4966850;28;7035;-71
2022/12/28 01:52:40;;;;;;;;;;;;;;;11.77;54.33;100570.59;4957551;28;6797;-71
2022/12/28 01:55:28;;;;;;;;;;;;;;;11.85;54.15;100576.06;4990182;28;6975;-71
2022/12/28 01:58:09;;;;;;;;;;;;;;;11.92;53.90;100568.69;4959665;28;7326;-71
2022/12/28 02:00:35;;;;;;;;;;;;;;;11.97;53.79;100545.78;4959484;28;6804;-71
2022/12/28 02:03:20;;;;;;;;;;;;;;;11.98;53.98;100552.72;4963367;28;8573;-71
2022/12/28 02:05:51;;;;;;;;;;;;;;;11.99;53.65;100533.91;4946283;28;7272;-71
2022/12/28 02:08:45;;;;;;;;;;;;;;;12.01;53.24;100545.13;4988833;28;6803;-71
2022/12/28 02:11:14;;;;;;;;;;;;;;;12.04;53.44;100531.59;4959920;28;7139;-71
2022/12/28 02:13:47;;;;;;;;;;;;;;;12.02;54.03;100541.78;4957857;28;6800;-71
2022/12/28 02:16:13;;;;;;;;;;;;;;;12.06;53.40;100535.94;4959031;28;7209;-71
2022/12/28 02:18:42;;;;;;;;;;;;;;;12.10;53.73;100541.25;4993021;28;6780;-71
2022/12/28 02:21:39;;;;;;;;;;;;;;;12.10;53.80;100543.81;4962606;28;6787;-71
2022/12/28 02:24:29;;;;;;;;;;;;;;;12.07;53.39;100537.75;4976177;28;7258;-72
2022/12/28 02:27:31;;;;;;;;;;;;;;;12.09;53.65;100535.22;4961897;28;6796;-71
2022/12/28 02:30:11;;;;;;;;;;;;;;;12.14;53.53;100523.47;4960342;28;7017;-71
2022/12/28 02:32:55;;;;;;;;;;;;;;;12.16;53.23;100520.94;4958836;28;11325;-72
2022/12/28 02:36:00;;;;;;;;;;;;;;;12.15;53.49;100503.78;4972403;28;7302;-71
2022/12/28 02:38:39;;;;;;;;;;;;;;;12.16;53.50;100495.25;4941837;28;6824;-71
2022/12/28 02:41:24;;;;;;;;;;;;;;;12.13;53.03;100479.72;4965130;28;7106;-71
2022/12/28 02:43:52;;;;;;;;;;;;;;;12.16;53.65;100482.41;4980769;28;7322;-71
2022/12/28 02:52:58;;;;;;;;;;;;;;;12.15;53.52;100465.22;4983413;28;8252;-71
2022/12/28 02:58:49;;;;;;;;;;;;;;;12.13;53.43;100457.47;4958792;28;6812;-71
2022/12/28 03:01:37;;;;;;;;;;;;;;;12.15;53.94;100450.72;4973908;28;7330;-71
2022/12/28 03:04:40;;;;;;;;;;;;;;;12.17;53.30;100440.50;4963895;28;6816;-71
2022/12/28 03:10:10;;;;;;;;;;;;;;;12.10;53.97;100428.22;4960837;28;6976;-72
2022/12/28 03:13:04;;;;;;;;;;;;;;;12.14;54.03;100436.09;4960375;28;6979;-71
2022/12/28 03:15:36;;;;;;;;;;;;;;;12.15;53.75;100398.44;4963796;28;6817;-71
2022/12/28 03:32:30;;;;;;;;;;;;;;;12.16;54.49;100384.75;4984858;28;6815;-71
2022/12/28 03:34:56;;;;;;;;;;;;;;;12.17;54.19;100402.81;4962465;28;6764;-71
2022/12/28 03:37:30;;;;;;;;;;;;;;;12.21;54.43;100404.69;4973251;28;8492;-71
2022/12/28 03:40:08;;;;;;;;;;;;;;;12.22;54.02;100403.00;4965195;28;6946;-71
2022/12/28 03:45:49;;;;;;;;;;;;;;;12.24;53.76;100400.53;4957636;28;6792;-71
2022/12/28 03:48:16;;;;;;;;;;;;;;;12.25;54.39;100392.84;4958947;28;6801;-71
2022/12/28 03:50:47;;;;;;;;;;;;;;;12.30;53.76;100385.34;4964117;28;7055;-71
2022/12/28 03:53:14;;;;;;;;;;;;;;;12.31;54.04;100382.84;4962090;28;6874;-71
2022/12/28 03:55:42;;;;;;;;;;;;;;;12.36;53.81;100365.91;4962258;28;6780;-71
2022/12/28 03:58:07;;;;;;;;;;;;;;;12.39;54.23;100375.44;4960671;28;6780;-72
2022/12/28 04:00:33;;;;;;;;;;;;;;;12.42;54.13;100374.69;4960353;28;6848;-72
2022/12/28 04:02:59;;;;;;;;;;;;;;;12.44;54.42;100360.19;4979646;28;6768;-72
2022/12/28 04:05:25;;;;;;;;;;;;;;;12.46;54.14;100364.59;4988936;28;6927;-73
2022/12/28 04:07:50;;;;;;;;;;;;;;;12.48;53.49;100354.38;4959760;28;6792;-72
2022/12/28 04:10:16;;;;;;;;;;;;;;;12.50;54.13;100368.16;4991278;28;6863;-72
2022/12/28 04:12:42;;;;;;;;;;;;;;;12.54;53.90;100364.00;4957607;28;6784;-72
2022/12/28 04:15:08;;;;;;;;;;;;;;;12.59;54.09;100367.63;4961993;28;6768;-71
2022/12/28 04:17:33;;;;;;;;;;;;;;;12.62;53.91;100360.06;4964691;28;6958;-72
2022/12/28 04:19:59;;;;;;;;;;;;;;;12.67;53.59;100352.53;4964141;28;6780;-72
2022/12/28 04:22:24;;;;;;;;;;;;;;;12.68;53.17;100349.97;4980011;28;6764;-72
2022/12/28 04:24:50;;;;;;;;;;;;;;;12.67;53.73;100342.22;4963135;28;6954;-72
2022/12/28 04:27:16;;;;;;;;;;;;;;;12.67;53.14;100345.66;4938111;28;7028;-72
2022/12/28 04:29:41;;;;;;;;;;;;;;;12.69;53.81;100332.88;4967563;28;6996;-73
2022/12/28 04:32:07;;;;;;;;;;;;;;;12.69;53.70;100328.59;4951843;28;6772;-72
2022/12/28 04:34:32;;;;;;;;;;;;;;;12.68;53.43;100336.28;4957370;28;7234;-72
2022/12/28 04:36:58;;;;;;;;;;;;;;;12.64;53.38;100340.41;4976468;28;6768;-72
2022/12/28 04:39:24;;;;;;;;;;;;;;;12.64;53.18;100341.28;4964499;28;6784;-72
2022/12/28 04:41:50;;;;;;;;;;;;;;;12.65;53.26;100329.31;4976844;28;6989;-71
2022/12/28 04:44:15;;;;;;;;;;;;;;;12.67;54.00;100343.09;4976371;28;7177;-73
2022/12/28 04:46:41;;;;;;;;;;;;;;;12.69;53.64;100330.31;4977804;28;6792;-72
2022/12/28 04:49:06;;;;;;;;;;;;;;;12.73;53.29;100325.34;4952859;28;7280;-72
2022/12/28 04:51:32;;;;;;;;;;;;;;;12.72;54.11;100307.28;4953764;28;6772;-72
2022/12/28 04:53:58;;;;;;;;;;;;;;;12.70;53.58;100344.91;4961671;28;6784;-72
2022/12/28 04:56:26;;;;;;;;;;;;;;;12.65;53.71;100347.31;4974476;28;6960;-71
2022/12/28 04:58:57;;;;;;;;;;;;;;;12.57;54.63;100333.28;4978678;28;6978;-72
2022/12/28 05:01:23;;;;;;;;;;;;;;;12.58;54.33;100327.31;4981322;28;7043;-72
2022/12/28 05:03:52;;;;;;;;;;;;;;;12.59;54.28;100347.06;4961579;28;11107;-71
2022/12/28 05:06:21;;;;;;;;;;;;;;;12.68;54.50;100338.84;4958718;28;6864;-72
2022/12/28 05:08:48;;;;;;;;;;;;;;;12.71;54.89;100338.94;4956713;28;6796;-72
2022/12/28 05:11:18;;;;;;;;;;;;;;;12.75;54.46;100323.69;4985941;28;8527;-72
2022/12/28 05:13:45;;;;;;;;;;;;;;;12.79;54.53;100337.56;4961820;28;6808;-72
2022/12/28 05:16:14;;;;;;;;;;;;;;;12.84;54.02;100324.88;4957573;28;6998;-73
2022/12/28 05:18:40;;;;;;;;;;;;;;;12.91;53.88;100332.84;4964139;28;6860;-72
2022/12/28 05:21:11;;;;;;;;;;;;;;;12.94;53.78;100329.53;4961709;28;6844;-72
2022/12/28 05:23:37;;;;;;;;;;;;;;;12.94;54.10;100316.66;4987377;28;7873;-72
2022/12/28 05:26:11;;;;;;;;;;;;;;;12.92;54.35;100337.19;4965887;28;6804;-72
2022/12/28 05:28:37;;;;;;;;;;;;;;;12.90;54.79;100331.09;4988040;28;6796;-72
2022/12/28 05:31:09;;;;;;;;;;;;;;;12.86;54.06;100328.38;4953494;28;6792;-72
2022/12/28 05:33:37;;;;;;;;;;;;;;;12.86;54.77;100329.25;4945355;28;7221;-72
2022/12/28 05:36:06;;;;;;;;;;;;;;;12.89;54.16;100321.63;4934544;28;6868;-72
2022/12/28 05:38:32;;;;;;;;;;;;;;;12.92;54.16;100326.03;4969725;28;7546;-72
2022/12/28 05:41:15;;;;;;;;;;;;;;;12.98;53.96;100307.38;4973211;28;7439;-72
2022/12/28 05:43:42;;;;;;;;;;;;;;;12.99;54.54;100317.72;4973408;28;7295;-72
2022/12/28 05:46:13;;;;;;;;;;;;;;;13.00;54.09;100318.59;4971512;28;6799;-72
2022/12/28 05:48:40;;;;;;;;;;;;;;;13.03;54.64;100324.72;4943717;28;6856;-72
2022/12/28 05:51:13;;;;;;;;;;;;;;;13.11;54.38;100316.41;4946210;28;6871;-73
2022/12/28 05:53:43;;;;;;;;;;;;;;;13.13;53.72;100315.63;4946186;28;6792;-73
2022/12/28 05:56:15;;;;;;;;;;;;;;;13.14;54.54;100314.84;4975871;28;7200;-71
2022/12/28 05:58:42;;;;;;;;;;;;;;;13.16;53.53;100310.63;4954520;28;6816;-72
2022/12/28 06:01:17;;;;;;;;;;;;;;;13.13;54.56;100297.63;4947817;28;6976;-72
2022/12/28 06:03:45;;;;;;;;;;;;;;;13.10;53.63;100300.09;4963320;28;7110;-72
2022/12/28 06:06:15;;;;;;;;;;;;;;;13.02;53.82;100301.50;4962758;28;6844;-72
2022/12/28 06:08:42;;;;;;;;;;;;;;;12.91;54.89;100289.13;4973014;28;7024;-72
2022/12/28 06:11:12;;;;;;;;;;;;;;;12.86;55.45;100285.53;4979588;28;6788;-72
2022/12/28 06:13:38;;;;;;;;;;;;;;;12.84;55.54;100273.41;4990373;28;6796;-72
2022/12/28 06:16:27;;;;;;;;;;;;;;;12.81;54.96;100274.19;4982325;28;7001;-73
2022/12/28 06:18:53;;;;;;;;;;;;;;;12.76;55.97;100263.72;4966651;28;8775;-71
2022/12/28 06:21:29;;;;;;;;;;;;;;;12.80;55.83;100280.16;4986408;28;6986;-73
2022/12/28 06:23:58;;;;;;;;;;;;;;;12.77;55.54;100269.75;4990191;28;6808;-72
2022/12/28 06:26:27;;;;;;;;;;;;;;;12.75;55.53;100268.84;4964389;28;6792;-72
2022/12/28 06:28:52;;;;;;;;;;;;;;;12.74;55.60;100269.63;4963813;28;7202;-73
2022/12/28 06:31:25;;;;;;;;;;;;;;;12.71;55.74;100272.09;4964484;28;6855;-73
2022/12/28 06:33:53;;;;;;;;;;;;;;;12.68;56.13;100272.00;4979819;28;7252;-72
2022/12/28 06:36:40;;;;;;;;;;;;;;;12.76;56.54;100262.88;4964696;28;6796;-72
2022/12/28 06:39:10;;;;;;;;;;;;;;;12.80;55.81;100269.84;4988529;28;6815;-72
2022/12/28 06:41:36;;;;;;;;;;;;;;;12.87;55.85;100265.81;4959972;28;6808;-71
2022/12/28 06:44:11;;;;;;;;;;;;;;;12.91;55.88;100268.56;4963240;28;6823;-72
2022/12/28 06:46:37;;;;;;;;;;;;;;;12.95;55.23;100273.81;4989829;28;7673;-72
2022/12/28 06:49:03;;;;;;;;;;;;;;;13.00;55.83;100267.13;4981415;28;6796;-72
2022/12/28 06:51:37;;;;;;;;;;;;;;;13.07;55.81;100274.25;4961356;28;6783;-73
2022/12/28 06:54:03;;;;;;;;;;;;;;;13.07;54.92;100266.53;4955813;28;6878;-72
2022/12/28 06:56:33;;;;;;;;;;;;;;;13.13;54.90;100259.03;4965264;28;7027;-73
2022/12/28 06:58:59;;;;;;;;;;;;;;;13.14;54.74;100258.22;4991937;28;6994;-73
2022/12/28 07:01:29;;;;;;;;;;;;;;;13.09;55.61;100267.47;4976575;28;6891;-73
2022/12/28 07:03:59;;;;;;;;;;;;;;;13.05;55.58;100260.47;4967596;28;6807;-72
2022/12/28 07:06:28;;;;;;;;;;;;;;;13.09;55.37;100269.19;4964823;28;7257;-73
2022/12/28 07:09:00;;;;;;;;;;;;;;;13.16;55.05;100263.41;4976924;28;8171;-72
2022/12/28 07:11:25;;;;;;;;;;;;;;;13.20;55.51;100261.00;4960030;28;6816;-73
2022/12/28 07:13:51;;;;;;;;;;;;;;;13.23;55.08;100259.34;4966383;28;6780;-73
2022/12/28 07:16:22;;;;;;;;;;;;;;;13.26;54.28;100260.31;4963233;28;6793;-72
2022/12/28 07:18:49;;;;;;;;;;;;;;;13.28;54.93;100273.25;4966372;28;6927;-72
2022/12/28 07:21:28;;;;;;;;;;;;;;;13.30;54.34;100271.59;4956596;28;6812;-73
2022/12/28 07:23:54;;;;;;;;;;;;;;;13.33;54.99;100271.75;4958152;28;6808;-72
2022/12/28 07:26:31;;;;;;;;;;;;;;;13.31;55.28;100252.75;4958921;28;6796;-72
2022/12/28 07:29:01;;;;;;;;;;;;;;;13.36;54.36;100269.25;4959991;28;6811;-72
2022/12/28 07:31:30;;;;;;;;;;;;;;;13.39;54.23;100258.19;4990041;28;6804;-72
2022/12/28 07:33:58;;;;;;;;;;;;;;;13.37;54.04;100254.66;4965627;28;6991;-72
2022/12/28 07:36:26;;;;;;;;;;;;;;;13.37;54.41;100260.72;4958870;28;6816;-73
2022/12/28 07:38:52;;;;;;;;;;;;;;;13.38;54.64;100254.75;4967619;28;6860;-72
2022/12/28 07:41:25;;;;;;;;;;;;;;;13.36;55.07;100255.50;4955011;28;6775;-73
2022/12/28 07:43:51;;;;;;;;;;;;;;;13.30;54.94;100241.63;4964510;28;7217;-73
2022/12/28 07:46:29;;;;;;;;;;;;;;;13.38;54.11;100257.31;4964958;28;6934;-72
2022/12/28 07:48:56;;;;;;;;;;;;;;;13.40;55.24;100249.66;4957055;28;6812;-72
2022/12/28 07:51:29;;;;;;;;;;;;;;;13.40;54.80;100252.22;4960332;28;7050;-72
2022/12/28 07:53:58;;;;;;;;;;;;;;;13.40;54.18;100247.94;4962331;28;6824;-74
2022/12/28 07:56:26;;;;;;;;;;;;;;;13.43;54.37;100253.22;4963506;28;6927;-73
2022/12/28 07:58:55;;;;;;;;;;;;;;;13.41;54.17;100253.97;4986391;28;11526;-72
2022/12/28 08:01:25;;;;;;;;;;;;;;;13.42;54.77;100251.47;4962762;28;6816;-72
2022/12/28 08:03:58;;;;;;;;;;;;;;;13.47;54.15;100249.94;4958693;28;7791;-73
2022/12/28 08:06:25;;;;;;;;;;;;;;;13.49;54.92;100246.53;4982592;28;7389;-72
2022/12/28 08:08:55;;;;;;;;;;;;;;;13.53;54.67;100248.41;4962438;28;6788;-73
2022/12/28 08:11:25;;;;;;;;;;;;;;;13.54;54.13;100245.00;4964541;28;6875;-72
2022/12/28 08:13:54;;;;;;;;;;;;;;;13.54;53.79;100245.00;4986691;28;6804;-72
2022/12/28 08:16:25;;;;;;;;;;;;;;;13.56;54.17;100259.66;4961544;28;6864;-72
2022/12/28 08:18:52;;;;;;;;;;;;;;;13.57;54.50;100252.81;4962560;28;6876;-72
2022/12/28 08:21:26;;;;;;;;;;;;;;;13.58;54.99;100241.69;4967711;28;7166;-73
2022/12/28 08:23:51;;;;;;;;;;;;;;;13.60;54.13;100261.53;4960317;28;7204;-72
2022/12/28 08:26:21;;;;;;;;;;;;;;;13.63;54.12;100271.06;4961133;28;7373;-73
2022/12/28 08:28:51;;;;;;;;;;;;;;;13.64;54.35;100267.66;4960540;28;6796;-73
2022/12/28 08:31:25;;;;;;;;;;;;;;;13.65;54.86;100265.94;4959384;28;6863;-73
2022/12/28 08:33:53;;;;;;;;;;;;;;;13.67;53.75;100257.44;4971542;28;10361;-73
2022/12/28 08:36:20;;;;;;;;;;;;;;;13.67;53.66;100272.91;4962040;28;6800;-72
2022/12/28 08:38:47;;;;;;;;;;;;;;;13.67;53.68;100266.88;4989516;28;7224;-72
2022/12/28 08:41:17;;;;;;;;;;;;;;;13.72;54.29;100276.53;4980814;28;7257;-73
2022/12/28 08:43:44;;;;;;;;;;;;;;;13.74;54.68;100259.41;4964564;28;7608;-73
2022/12/28 08:46:16;;;;;;;;;;;;;;;13.75;53.51;100261.16;4958026;28;6852;-72
2022/12/28 08:48:42;;;;;;;;;;;;;;;13.78;54.22;100262.97;4957522;28;6816;-72
2022/12/28 08:51:12;;;;;;;;;;;;;;;13.80;53.37;100265.56;4987850;28;7038;-72
2022/12/28 08:53:39;;;;;;;;;;;;;;;13.84;53.91;100265.72;4948183;28;7282;-73
2022/12/28 08:56:12;;;;;;;;;;;;;;;13.89;54.15;100263.28;4939934;28;7027;-73
2022/12/28 08:58:40;;;;;;;;;;;;;;;13.90;53.84;100257.31;4950707;28;7562;-72
2022/12/28 09:01:17;;;;;;;;;;;;;;;13.90;53.42;100257.31;4937418;28;7589;-73
2022/12/28 09:03:46;;;;;;;;;;;;;;;13.93;53.56;100253.97;4973425;28;7049;-72
2022/12/28 09:06:20;;;;;;;;;;;;;;;13.93;53.20;100257.44;4974902;28;6792;-73
2022/12/28 09:08:51;;;;;;;;;;;;;;;13.97;53.87;100256.69;4960011;28;7251;-74
2022/12/28 09:11:17;;;;;;;;;;;;;;;13.96;53.24;100261.81;4959905;28;6995;-72
2022/12/28 09:13:43;;;;;;;;;;;;;;;13.98;53.61;100257.56;4959638;28;6991;-73
2022/12/28 09:16:15;;;;;;;;;;;;;;;13.98;53.61;100248.13;4957244;28;6780;-73
2022/12/28 09:18:43;;;;;;;;;;;;;;;14.02;53.27;100252.56;4958768;28;6808;-73
2022/12/28 09:21:16;;;;;;;;;;;;;;;14.03;53.83;100254.31;4962055;28;6784;-72
2022/12/28 09:23:44;;;;;;;;;;;;;;;14.03;52.97;100253.44;4956083;28;7043;-72
2022/12/28 09:26:18;;;;;;;;;;;;;;;14.00;53.34;100255.91;4969842;28;6992;-72
2022/12/28 09:28:46;;;;;;;;;;;;;;;13.93;53.52;100252.28;4988995;28;7170;-73
2022/12/28 09:31:11;;;;;;;;;;;;;;;13.86;54.34;100252.91;4956186;28;7000;-73
2022/12/28 09:36:21;;;;;;;;;;;;;;;13.69;54.23;100250.63;4948588;28;7146;-73
2022/12/28 09:38:51;;;;;;;;;;;;;;;13.74;54.40;100261.97;4947869;28;6764;-72
2022/12/28 09:41:30;;;;;;;;;;;;;;;13.82;54.10;100238.19;4975810;28;6808;-72
2022/12/28 09:44:17;;;;;;;;;;;;;;;13.92;54.76;100263.41;4941501;28;6997;-72
2022/12/28 09:47:02;;;;;;;;;;;;;;;13.97;54.32;100248.97;4947733;28;6883;-72
2022/12/28 09:49:43;;;;;;;;;;;;;;;14.07;53.68;100242.41;4949350;28;6804;-72
2022/12/28 09:52:20;;;;;;;;;;;;;;;14.14;53.91;100254.63;4981795;28;6808;-73
2022/12/28 09:54:46;;;;;;;;;;;;;;;14.26;53.07;100250.72;4952635;28;6796;-72
2022/12/28 09:57:17;;;;;;;;;;;;;;;14.30;53.03;100245.69;4964600;28;7138;-73
2022/12/28 09:59:45;;;;;;;;;;;;;;;14.39;53.50;100239.03;4983210;28;7091;-73
2022/12/28 10:02:30;;;;;;;;;;;;;;;14.46;53.27;100242.69;4962543;28;6939;-73
2022/12/28 10:04:56;;;;;;;;;;;;;;;14.49;52.29;100230.78;4967915;28;6798;-72
2022/12/28 10:07:22;;;;;;;;;;;;;;;14.52;52.80;100217.97;4969836;28;7188;-72
2022/12/28 10:09:49;;;;;;;;;;;;;;;14.53;52.61;100227.44;4966993;28;6812;-73
2022/12/28 10:12:25;;;;;;;;;;;;;;;14.60;51.75;100227.63;4967556;28;7417;-73
2022/12/28 10:14:52;;;;;;;;;;;;;;;14.64;52.38;100221.72;4968997;28;6848;-73
2022/12/28 10:17:27;;;;;;;;;;;;;;;14.66;52.33;100226.09;4965667;28;6996;-73
2022/12/28 10:19:57;;;;;;;;;;;;;;;14.74;52.11;100225.47;4968635;28;6955;-73
2022/12/28 10:22:40;;;;;;;;;;;;;;;14.75;52.07;100230.66;4994378;28;6947;-72
2022/12/28 10:25:24;;;;;;;;;;;;;;;14.79;52.14;100209.28;4981721;28;6840;-73
2022/12/28 10:27:51;;;;;;;;;;;;;;;14.80;51.63;100205.88;4984869;28;7005;-72
2022/12/28 10:30:26;;;;;;;;;;;;;;;14.80;51.88;100205.88;4982794;28;6792;-72
2022/12/28 10:32:54;;;;;;;;;;;;;;;14.83;51.66;100220.56;4981553;28;6864;-72
2022/12/28 10:35:29;;;;;;;;;;;;;;;14.85;51.31;100199.13;4991704;28;7140;-73
2022/12/28 10:38:18;;;;;;;;;;;;;;;14.86;51.13;100210.31;4964307;28;6804;-72
2022/12/28 10:40:44;;;;;;;;;;;;;;;14.85;51.24;100199.13;4986143;28;7306;-73
2022/12/28 10:43:19;;;;;;;;;;;;;;;14.86;51.93;100194.84;4995318;28;7130;-73
2022/12/28 10:45:50;;;;;;;;;;;;;;;14.92;51.16;100200.19;4993592;28;6788;-72
2022/12/28 10:48:30;;;;;;;;;;;;;;;14.95;50.73;100197.69;4991234;28;7315;-73
2022/12/28 10:51:21;;;;;;;;;;;;;;;14.95;51.41;100181.31;4967465;28;6804;-73
2022/12/28 10:53:53;;;;;;;;;;;;;;;14.95;51.28;100194.19;4981519;28;6991;-72
2022/12/28 10:56:25;;;;;;;;;;;;;;;14.98;51.19;100202.06;4983631;28;6981;-73
2022/12/28 10:58:54;;;;;;;;;;;;;;;15.01;50.62;100199.53;4968822;28;6796;-72
2022/12/28 11:01:29;;;;;;;;;;;;;;;15.10;50.84;100202.38;4981865;28;6998;-73
2022/12/28 11:03:54;;;;;;;;;;;;;;;15.13;51.04;100162.88;4965323;28;7389;-72
2022/12/28 11:06:29;;;;;;;;;;;;;;;15.14;50.51;100198.16;4966915;28;6937;-72
2022/12/28 11:09:16;;;;;;;;;;;;;;;15.15;50.08;100187.00;4994036;28;6807;-73
2022/12/28 11:11:44;;;;;;;;;;;;;;;15.17;50.73;100190.47;4984658;28;6978;-73
2022/12/28 11:14:34;;;;;;;;;;;;;;;15.23;49.87;100192.34;4983522;28;6796;-73
2022/12/28 11:17:20;;;;;;;;;;;;;;;15.25;49.68;100185.50;4960881;28;6934;-72
2022/12/28 11:19:52;;;;;;;;;;;;;;;15.26;50.38;100189.88;4990144;28;6792;-73
2022/12/28 11:22:26;;;;;;;;;;;;;;;15.23;49.69;100175.16;4982383;28;6803;-72
2022/12/28 11:24:52;;;;;;;;;;;;;;;15.20;49.81;100166.47;4961074;28;6947;-73
2022/12/28 11:27:22;;;;;;;;;;;;;;;15.20;49.56;100164.75;4967798;28;6816;-72
2022/12/28 11:29:51;;;;;;;;;;;;;;;15.21;49.78;100147.56;4982762;28;7179;-74
2022/12/28 11:32:23;;;;;;;;;;;;;;;15.22;49.30;100152.78;4963911;28;6852;-73
2022/12/28 11:34:52;;;;;;;;;;;;;;;15.15;49.80;100150.84;4981638;28;7027;-72
2022/12/28 11:37:17;;;;;;;;;;;;;;;15.13;49.94;100152.53;4963883;28;7543;-73
2022/12/28 11:39:49;;;;;;;;;;;;;;;15.12;49.99;100155.97;4962483;28;6780;-73
2022/12/28 11:42:33;;;;;;;;;;;;;;;15.02;49.80;100162.56;4993304;28;7035;-73
2022/12/28 11:45:02;;;;;;;;;;;;;;;14.85;50.25;100152.69;4962773;28;6776;-72
2022/12/28 11:47:32;;;;;;;;;;;;;;;14.73;51.30;100147.19;4963480;28;7282;-73
2022/12/28 11:50:37;;;;;;;;;;;;;;;14.58;51.21;100145.03;4982341;28;7029;-72
2022/12/28 11:53:38;;;;;;;;;;;;;;;14.48;51.55;100143.91;4962373;28;6917;-73
2022/12/28 11:56:13;;;;;;;;;;;;;;;14.40;51.93;100132.53;4974694;28;6808;-72
2022/12/28 11:58:38;;;;;;;;;;;;;;;14.36;51.87;100131.56;4966855;28;6808;-73
2022/12/28 12:01:09;;;;;;;;;;;;;;;14.33;52.19;100133.16;4962093;28;7746;-73
2022/12/28 12:04:26;;;;;;;;;;;;;;;14.33;51.89;100121.13;4967376;28;6880;-72
2022/12/28 12:06:52;;;;;;;;;;;;;;;14.28;52.64;100123.59;4944746;28;7216;-72
2022/12/28 12:09:20;;;;;;;;;;;;;;;14.28;51.52;100104.69;4970583;28;7031;-73
2022/12/28 12:11:53;;;;;;;;;;;;;;;14.27;51.82;100106.38;4955204;28;7105;-73
2022/12/28 12:14:37;;;;;;;;;;;;;;;14.28;52.14;100115.00;4958767;28;6877;-72
2022/12/28 12:17:22;;;;;;;;;;;;;;;14.29;51.37;100098.69;4969685;28;6796;-73
2022/12/28 12:19:55;;;;;;;;;;;;;;;14.27;51.92;100095.22;4973233;28;7050;-72
2022/12/28 12:22:33;;;;;;;;;;;;;;;14.16;52.23;100097.47;4936983;28;8951;-73
2022/12/28 12:25:08;;;;;;;;;;;;;;;14.03;52.01;100081.66;4943747;28;6812;-73
2022/12/28 12:27:43;;;;;;;;;;;;;;;13.95;52.97;100070.25;4972442;28;7144;-72
2022/12/28 12:30:21;;;;;;;;;;;;;;;13.87;52.88;100056.28;4971562;28;7917;-73
2022/12/28 12:33:01;;;;;;;;;;;;;;;13.78;52.81;100048.28;4970578;28;11162;-73
2022/12/28 12:35:33;;;;;;;;;;;;;;;13.72;53.97;100041.25;4970538;28;6819;-73
2022/12/28 12:38:35;;;;;;;;;;;;;;;13.69;53.78;100023.16;4968327;28;8012;-73
2022/12/28 12:41:20;;;;;;;;;;;;;;;13.67;53.57;100041.13;4960465;28;9399;-72
2022/12/28 12:44:28;;;;;;;;;;;;;;;13.72;53.13;100034.41;4975058;28;6944;-72
2022/12/28 12:47:34;;;;;;;;;;;;;;;13.76;54.05;100019.91;4959427;28;7681;-72
2022/12/28 12:50:39;;;;;;;;;;;;;;;13.89;52.85;100011.72;4957039;28;6826;-72
2022/12/28 12:54:00;;;;;;;;;;;;;;;13.98;53.26;100016.25;4965458;28;6836;-73
2022/12/28 12:57:06;;;;;;;;;;;;;;;14.06;52.59;100010.44;4958783;28;7007;-73
2022/12/28 13:00:14;;;;;;;;;;;;;;;14.13;52.21;100007.19;4958274;28;7079;-72
2022/12/28 13:03:26;;;;;;;;;;;;;;;14.22;52.10;100017.75;4958184;28;11554;-73
2022/12/28 13:05:55;;;;;;;;;;;;;;;14.27;52.46;100020.47;4960234;28;6824;-73
2022/12/28 13:08:54;;;;;;;;;;;;;;;14.35;51.59;100006.06;4970904;28;7011;-73
2022/12/28 13:11:23;;;;;;;;;;;;;;;14.40;51.19;99994.16;4938543;28;6808;-72
2022/12/28 13:13:53;;;;;;;;;;;;;;;14.46;51.69;99964.22;4959667;28;6785;-72
2022/12/28 13:16:28;;;;;;;;;;;;;;;14.49;50.72;99952.28;4956132;28;7262;-73
2022/12/28 13:19:02;;;;;;;;;;;;;;;14.52;50.48;99947.19;4942882;28;6935;-72
2022/12/28 13:21:40;;;;;;;;;;;;;;;14.54;51.38;99914.56;4968317;28;7358;-72
2022/12/28 13:24:28;;;;;;;;;;;;;;;14.57;51.58;99899.16;4971612;28;7244;-73
2022/12/28 13:26:57;;;;;;;;;;;;;;;14.61;51.50;99963.72;4941325;28;6808;-73
2022/12/28 13:29:31;;;;;;;;;;;;;;;14.58;50.93;99973.13;4943506;28;6797;-72
2022/12/28 13:31:57;;;;;;;;;;;;;;;14.63;50.82;99969.78;4967936;28;6820;-72
2022/12/28 13:34:22;;;;;;;;;;;;;;;14.71;50.38;99973.44;4972135;28;6952;-72
2022/12/28 13:36:56;;;;;;;;;;;;;;;14.73;50.88;99964.06;4956885;28;6784;-72
2022/12/28 13:39:28;;;;;;;;;;;;;;;14.78;50.89;99954.72;4957795;28;6887;-72
2022/12/28 13:42:10;;;;;;;;;;;;;;;14.79;50.19;99930.66;4954990;28;7270;-72
2022/12/28 13:45:03;;;;;;;;;;;;;;;14.82;49.30;99937.59;4962344;28;7019;-73
2022/12/28 13:47:36;;;;;;;;;;;;;;;14.80;49.53;99936.69;4935812;28;6804;-72
2022/12/28 13:50:19;;;;;;;;;;;;;;;14.81;49.97;99941.00;4956127;28;7667;-72